createdAt,value
2022-09-01T00:00:01.611Z,101741.75
2022-09-01T00:02:29.050Z,101734.44
2022-09-01T00:04:55.594Z,101736.47
2022-09-01T00:07:21.921Z,101734.13
2022-09-01T00:09:48.226Z,101729.47
2022-09-01T00:12:14.534Z,101733.19
2022-09-01T00:14:42.180Z,101731.19
2022-09-01T00:17:09.600Z,101723.13
2022-09-01T00:19:36.367Z,101731.75
2022-09-01T00:22:03.227Z,101736.13
2022-09-01T00:24:29.582Z,101742.22
2022-09-01T00:26:56.671Z,101737.56
2022-09-01T00:29:23.870Z,101734.75
2022-09-01T00:31:51.998Z,101742.97
2022-09-01T00:34:18.335Z,101734.94
2022-09-01T00:36:44.700Z,101738.78
2022-09-01T00:39:12.107Z,101736.81
2022-09-01T00:42:03.348Z,101729.66
2022-09-01T00:44:31.297Z,101734.53
2022-09-01T00:46:59.945Z,101737.22
2022-09-01T00:49:28.369Z,101736.91
2022-09-01T00:51:58.844Z,101733.91
2022-09-01T00:54:27.303Z,101731.22
2022-09-01T00:56:57.775Z,101740.47
2022-09-01T00:59:25.700Z,101742.47
2022-09-01T01:01:52.105Z,101738.66
2022-09-01T01:04:19.842Z,101735.31
2022-09-01T01:06:47.583Z,101738.28
2022-09-01T01:09:13.903Z,101739.31
2022-09-01T01:11:40.271Z,101730.59
2022-09-01T01:14:07.730Z,101728.94
2022-09-01T01:16:34.072Z,101726.88
2022-09-01T01:19:00.417Z,101735.59
2022-09-01T01:21:31.632Z,101728.75
2022-09-01T01:24:02.273Z,101726.06
2022-09-01T01:26:29.943Z,101728.56
2022-09-01T01:28:56.258Z,101731.25
2022-09-01T01:31:22.657Z,101734.78
2022-09-01T01:33:50.895Z,101732.25
2022-09-01T01:36:19.349Z,101732.25
2022-09-01T01:38:47.039Z,101730.78
2022-09-01T01:41:14.117Z,101741.69
2022-09-01T01:43:41.882Z,101735.47
2022-09-01T01:46:09.393Z,101736.31
2022-09-01T01:48:36.675Z,101734.13
2022-09-01T01:51:03.531Z,101735.00
2022-09-01T01:53:30.249Z,101738.03
2022-09-01T01:55:56.701Z,101731.00
2022-09-01T01:58:23.181Z,101738.56
2022-09-01T02:00:51.823Z,101732.03
2022-09-01T02:03:19.182Z,101737.06
2022-09-01T02:05:46.530Z,101742.94
2022-09-01T02:08:13.185Z,101741.44
2022-09-01T02:10:40.639Z,101735.25
2022-09-01T02:13:06.954Z,101733.91
2022-09-01T02:15:34.861Z,101731.59
2022-09-01T02:18:03.260Z,101733.78
2022-09-01T02:20:31.600Z,101737.78
2022-09-01T02:22:58.119Z,101733.94
2022-09-01T02:25:24.436Z,101735.94
2022-09-01T02:27:50.754Z,101737.13
2022-09-01T02:30:17.070Z,101732.09
2022-09-01T02:32:43.371Z,101737.97
2022-09-01T02:35:11.039Z,101731.09
2022-09-01T02:37:38.383Z,101733.09
2022-09-01T02:40:06.049Z,101737.78
2022-09-01T02:42:32.419Z,101731.44
2022-09-01T02:44:58.781Z,101736.31
2022-09-01T02:47:25.114Z,101735.63
2022-09-01T02:49:51.460Z,101734.44
2022-09-01T02:52:19.122Z,101723.38
2022-09-01T02:54:45.442Z,101728.38
2022-09-01T02:57:11.796Z,101720.69
2022-09-01T02:59:43.146Z,101718.34
2022-09-01T03:02:11.823Z,101721.66
2022-09-01T03:04:38.191Z,101718.34
2022-09-01T03:07:05.474Z,101720.34
2022-09-01T03:09:33.141Z,101718.16
2022-09-01T03:11:59.451Z,101720.00
2022-09-01T03:14:25.865Z,101716.31
2022-09-01T03:16:52.266Z,101720.63
2022-09-01T03:19:18.668Z,101727.31
2022-09-01T03:21:45.430Z,101719.63
2022-09-01T03:24:13.279Z,101721.97
2022-09-01T03:26:41.500Z,101718.09
2022-09-01T03:29:08.348Z,101723.81
2022-09-01T03:31:35.165Z,101731.31
2022-09-01T03:34:01.831Z,101735.13
2022-09-01T03:36:28.872Z,101728.63
2022-09-01T03:38:55.566Z,101727.63
2022-09-01T03:41:24.082Z,101732.59
2022-09-01T03:43:52.030Z,101727.72
2022-09-01T03:46:18.575Z,101725.56
2022-09-01T03:48:44.908Z,101723.72
2022-09-01T03:51:11.207Z,101725.88
2022-09-01T03:53:37.964Z,101720.84
2022-09-01T03:56:05.126Z,101713.31
2022-09-01T03:58:31.583Z,101721.19
2022-09-01T04:00:59.633Z,101717.44
2022-09-01T04:03:28.971Z,101726.66
2022-09-01T04:05:57.983Z,101714.75
2022-09-01T04:08:25.082Z,101725.28
2022-09-01T04:10:54.426Z,101718.72
2022-09-01T04:13:22.422Z,101720.06
2022-09-01T04:15:48.879Z,101722.22
2022-09-01T04:18:16.968Z,101713.63
2022-09-01T04:20:43.362Z,101722.69
2022-09-01T04:23:09.699Z,101721.00
2022-09-01T04:25:36.059Z,101726.50
2022-09-01T04:28:02.602Z,101722.31
2022-09-01T04:30:28.965Z,101722.44
2022-09-01T04:32:55.281Z,101725.13
2022-09-01T04:35:22.985Z,101726.97
2022-09-01T04:37:49.310Z,101730.78
2022-09-01T04:40:15.772Z,101720.28
2022-09-01T04:42:42.100Z,101726.47
2022-09-01T04:45:10.861Z,101725.94
2022-09-01T04:47:37.450Z,101726.38
2022-09-01T04:50:04.600Z,101723.72
2022-09-01T04:52:32.302Z,101728.22
2022-09-01T04:54:58.664Z,101728.56
2022-09-01T04:57:24.999Z,101721.53
2022-09-01T04:59:51.295Z,101721.69
2022-09-01T05:02:17.658Z,101724.34
2022-09-01T05:04:43.990Z,101729.84
2022-09-01T05:07:10.647Z,101729.72
2022-09-01T05:09:38.303Z,101726.03
2022-09-01T05:12:05.029Z,101730.84
2022-09-01T05:14:31.338Z,101730.84
2022-09-01T05:16:58.123Z,101728.03
2022-09-01T05:19:24.503Z,101732.38
2022-09-01T05:21:50.837Z,101730.16
2022-09-01T05:24:18.067Z,101728.19
2022-09-01T05:26:45.867Z,101731.53
2022-09-01T05:29:12.195Z,101734.91
2022-09-01T05:31:39.586Z,101736.56
2022-09-01T05:34:06.784Z,101739.44
2022-09-01T05:36:33.136Z,101738.28
2022-09-01T05:39:00.109Z,101739.63
2022-09-01T05:41:26.999Z,101751.00
2022-09-01T05:44:00.078Z,101740.69
2022-09-01T05:46:27.283Z,101742.59
2022-09-01T05:48:54.485Z,101741.44
2022-09-01T05:51:43.427Z,101745.16
2022-09-01T05:54:08.861Z,101749.81
2022-09-01T05:56:39.272Z,101749.34
2022-09-01T05:59:26.380Z,101748.03
2022-09-01T06:01:53.048Z,101748.53
2022-09-01T06:04:19.491Z,101750.75
2022-09-01T06:07:06.017Z,101752.78
2022-09-01T06:09:33.958Z,101750.78
2022-09-01T06:12:00.272Z,101757.50
2022-09-01T06:14:27.967Z,101747.47
2022-09-01T06:16:54.308Z,101755.53
2022-09-01T06:19:20.913Z,101755.69
2022-09-01T06:21:47.251Z,101753.88
2022-09-01T06:24:13.559Z,101758.28
2022-09-01T06:26:39.892Z,101754.63
2022-09-01T06:29:07.342Z,101749.44
2022-09-01T06:31:35.567Z,101738.72
2022-09-01T06:34:02.547Z,101741.44
2022-09-01T06:36:34.424Z,101746.97
2022-09-01T06:39:01.299Z,101753.19
2022-09-01T06:41:28.051Z,101743.97
2022-09-01T06:43:54.462Z,101752.03
2022-09-01T06:46:21.402Z,101760.75
2022-09-01T06:48:49.519Z,101756.38
2022-09-01T06:51:19.583Z,101755.19
2022-09-01T06:53:48.287Z,101757.34
2022-09-01T06:56:15.622Z,101758.84
2022-09-01T06:58:43.020Z,101758.66
2022-09-01T07:01:10.957Z,101769.16
2022-09-01T07:03:38.137Z,101764.44
2022-09-01T07:06:06.600Z,101763.09
2022-09-01T07:08:32.899Z,101764.72
2022-09-01T07:16:35.416Z,101765.63
2022-09-01T07:19:03.818Z,101761.19
2022-09-01T07:21:41.757Z,101768.19
2022-09-01T07:26:55.490Z,101764.69
2022-09-01T07:29:21.850Z,101773.50
2022-09-01T07:31:49.680Z,101763.88
2022-09-01T07:39:51.270Z,101766.00
2022-09-01T07:42:33.695Z,101762.41
2022-09-01T07:47:52.980Z,101776.44
2022-09-01T07:53:07.501Z,101770.16
2022-09-01T07:55:33.810Z,101776.97
2022-09-01T07:58:00.136Z,101776.03
2022-09-01T08:00:30.185Z,101774.53
2022-09-01T08:02:58.054Z,101776.09
2022-09-01T08:05:24.438Z,101775.53
2022-09-01T08:07:52.008Z,101780.16
2022-09-01T08:10:20.486Z,101775.94
2022-09-01T08:12:55.943Z,101775.81
2022-09-01T08:15:41.437Z,101773.94
2022-09-01T08:18:08.568Z,101774.28
2022-09-01T08:20:37.328Z,101778.06
2022-09-01T08:23:03.674Z,101773.59
2022-09-01T08:25:31.391Z,101769.75
2022-09-01T08:28:00.954Z,101765.91
2022-09-01T08:30:27.779Z,101765.16
2022-09-01T08:32:54.138Z,101768.91
2022-09-01T08:35:20.574Z,101779.81
2022-09-01T08:37:46.923Z,101773.47
2022-09-01T08:40:14.652Z,101773.31
2022-09-01T08:42:50.050Z,101761.34
2022-09-01T08:45:22.794Z,101763.09
2022-09-01T08:48:22.569Z,101766.28
2022-09-01T08:50:38.776Z,101768.59
2022-09-01T08:53:09.401Z,101763.44
2022-09-01T08:55:37.470Z,101774.09
2022-09-01T08:58:05.447Z,101760.44
2022-09-01T09:00:37.166Z,101762.16
2022-09-01T09:03:12.034Z,101758.03
2022-09-01T09:05:43.646Z,101760.56
2022-09-01T09:08:20.289Z,101761.44
2022-09-01T09:10:51.129Z,101763.94
2022-09-01T09:13:21.592Z,101762.69
2022-09-01T09:15:52.078Z,101754.78
2022-09-01T09:18:39.867Z,101758.53
2022-09-01T09:21:08.419Z,101755.22
2022-09-01T09:23:39.279Z,101757.09
2022-09-01T09:26:07.956Z,101761.03
2022-09-01T09:28:35.811Z,101753.53
2022-09-01T09:31:20.765Z,101753.50
2022-09-01T09:33:52.102Z,101750.97
2022-09-01T09:36:22.047Z,101746.97
2022-09-01T09:39:04.308Z,101738.41
2022-09-01T09:41:31.417Z,101745.09
2022-09-01T09:44:00.238Z,101736.75
2022-09-01T09:46:33.185Z,101734.81
2022-09-01T09:49:10.236Z,101736.03
2022-09-01T09:51:37.073Z,101734.09
2022-09-01T09:54:13.705Z,101736.94
2022-09-01T09:56:40.327Z,101727.34
2022-09-01T09:59:29.231Z,101729.78
2022-09-01T10:02:16.442Z,101724.28
2022-09-01T10:04:42.835Z,101720.72
2022-09-01T10:07:26.282Z,101724.69
2022-09-01T10:09:53.031Z,101713.34
2022-09-01T10:12:19.993Z,101715.34
2022-09-01T10:14:52.007Z,101714.22
2022-09-01T10:17:23.217Z,101713.56
2022-09-01T10:19:53.431Z,101714.34
2022-09-01T10:22:20.292Z,101710.28
2022-09-01T10:24:50.351Z,101707.13
2022-09-01T10:27:19.413Z,101712.59
2022-09-01T10:29:47.968Z,101717.34
2022-09-01T10:32:42.174Z,101715.22
2022-09-01T10:35:07.624Z,101714.25
2022-09-01T10:37:34.229Z,101707.44
2022-09-01T10:40:11.307Z,101707.78
2022-09-01T10:42:38.479Z,101711.25
2022-09-01T10:45:05.215Z,101693.00
2022-09-01T10:47:33.729Z,101697.50
2022-09-01T10:50:06.998Z,101702.84
2022-09-01T10:52:53.844Z,101695.66
2022-09-01T10:55:25.113Z,101696.38
2022-09-01T10:57:56.153Z,101696.25
2022-09-01T11:00:41.890Z,101692.16
2022-09-01T11:03:42.053Z,101691.09
2022-09-01T11:06:33.227Z,101685.72
2022-09-01T11:09:02.931Z,101695.09
2022-09-01T11:11:31.371Z,101691.00
2022-09-01T11:13:58.355Z,101683.16
2022-09-01T11:16:50.025Z,101679.25
2022-09-01T11:19:35.087Z,101677.28
2022-09-01T11:22:10.146Z,101679.44
2022-09-01T11:24:54.469Z,101670.81
2022-09-01T11:27:45.251Z,101672.00
2022-09-01T11:30:16.094Z,101664.22
2022-09-01T11:32:46.812Z,101665.16
2022-09-01T11:35:16.822Z,101662.94
2022-09-01T11:37:43.421Z,101666.03
2022-09-01T11:40:10.336Z,101651.47
2022-09-01T11:42:39.614Z,101668.84
2022-09-01T11:45:12.779Z,101661.03
2022-09-01T11:47:48.295Z,101662.69
2022-09-01T11:50:19.993Z,101651.59
2022-09-01T11:52:54.019Z,101652.03
2022-09-01T11:55:28.766Z,101643.91
2022-09-01T11:57:55.080Z,101654.72
2022-09-01T12:00:25.991Z,101646.88
2022-09-01T12:02:52.463Z,101644.31
2022-09-01T12:05:28.150Z,101649.75
2022-09-01T12:07:54.710Z,101646.31
2022-09-01T12:10:24.027Z,101629.50
2022-09-01T12:12:50.338Z,101641.34
2022-09-01T12:15:19.336Z,101635.78
2022-09-01T12:17:45.914Z,101639.22
2022-09-01T12:20:29.416Z,101636.25
2022-09-01T12:22:56.359Z,101630.78
2022-09-01T12:25:24.519Z,101628.44
2022-09-01T12:27:52.384Z,101625.63
2022-09-01T12:30:19.686Z,101627.84
2022-09-01T12:32:46.671Z,101622.53
2022-09-01T12:35:15.732Z,101625.59
2022-09-01T12:37:43.466Z,101624.66
2022-09-01T12:40:21.889Z,101621.56
2022-09-01T12:42:49.505Z,101616.72
2022-09-01T12:45:35.770Z,101606.66
2022-09-01T12:48:02.247Z,101619.56
2022-09-01T12:50:45.447Z,101621.91
2022-09-01T12:53:18.740Z,101612.00
2022-09-01T12:55:55.216Z,101608.66
2022-09-01T12:58:23.370Z,101612.56
2022-09-01T13:01:00.579Z,101607.25
2022-09-01T13:03:27.468Z,101607.34
2022-09-01T13:05:54.393Z,101603.81
2022-09-01T13:08:23.197Z,101603.22
2022-09-01T13:10:51.701Z,101599.44
2022-09-01T13:13:18.266Z,101599.09
2022-09-01T13:15:45.483Z,101590.78
2022-09-01T13:18:11.880Z,101593.88
2022-09-01T13:20:38.241Z,101588.09
2022-09-01T13:23:04.567Z,101590.34
2022-09-01T13:25:32.221Z,101584.41
2022-09-01T13:27:58.548Z,101578.38
2022-09-01T13:30:25.504Z,101582.97
2022-09-01T13:35:38.338Z,101570.56
2022-09-01T13:38:05.210Z,101568.81
2022-09-01T13:40:32.939Z,101572.69
2022-09-01T13:42:59.294Z,101561.56
2022-09-01T13:45:25.685Z,101565.72
2022-09-01T13:53:25.611Z,101566.38
2022-09-01T13:55:53.287Z,101554.34
2022-09-01T13:58:19.670Z,101557.59
2022-09-01T14:00:47.283Z,101551.63
2022-09-01T14:03:15.606Z,101553.88
2022-09-01T14:05:43.016Z,101548.66
2022-09-01T14:08:10.347Z,101539.69
2022-09-01T14:10:38.537Z,101540.41
2022-09-01T14:13:06.190Z,101527.75
2022-09-01T14:15:32.507Z,101534.78
2022-09-01T14:17:58.826Z,101546.22
2022-09-01T14:20:26.329Z,101542.44
2022-09-01T14:22:53.119Z,101537.81
2022-09-01T14:25:20.431Z,101530.38
2022-09-01T14:27:47.529Z,101526.09
2022-09-01T14:30:16.575Z,101520.56
2022-09-01T14:32:43.086Z,101515.19
2022-09-01T14:35:09.612Z,101522.28
2022-09-01T14:37:36.743Z,101519.13
2022-09-01T14:40:03.737Z,101510.75
2022-09-01T14:42:30.085Z,101513.00
2022-09-01T14:44:56.417Z,101509.56
2022-09-01T14:47:24.147Z,101503.06
2022-09-01T14:49:50.460Z,101498.94
2022-09-01T14:52:16.794Z,101496.44
2022-09-01T14:54:43.106Z,101497.75
2022-09-01T14:59:55.942Z,101493.03
2022-09-01T15:02:23.578Z,101490.69
2022-09-01T15:04:49.967Z,101486.91
2022-09-01T15:07:16.339Z,101483.63
2022-09-01T15:09:42.663Z,101489.16
2022-09-01T15:12:09.011Z,101488.09
2022-09-01T15:14:35.519Z,101486.69
2022-09-01T15:17:01.828Z,101471.31
2022-09-01T15:19:29.495Z,101478.88
2022-09-01T15:21:55.834Z,101473.91
2022-09-01T15:24:22.135Z,101469.91
2022-09-01T15:26:48.503Z,101472.16
2022-09-01T15:29:15.152Z,101469.19
2022-09-01T15:31:43.176Z,101471.56
2022-09-01T15:34:09.571Z,101463.97
2022-09-01T15:36:38.607Z,101470.25
2022-09-01T15:39:04.967Z,101464.94
2022-09-01T15:41:32.156Z,101459.97
2022-09-01T15:43:58.719Z,101465.63
2022-09-01T15:46:25.714Z,101456.41
2022-09-01T15:48:52.047Z,101460.88
2022-09-01T15:51:28.930Z,101451.78
2022-09-01T15:53:59.177Z,101451.78
2022-09-01T15:56:25.965Z,101451.78
2022-09-01T15:59:01.103Z,101458.50
2022-09-01T16:01:29.514Z,101451.19
2022-09-01T16:03:56.125Z,101444.69
2022-09-01T16:06:22.482Z,101448.69
2022-09-01T16:08:48.974Z,101450.34
2022-09-01T16:11:16.638Z,101444.09
2022-09-01T16:13:43.134Z,101442.44
2022-09-01T16:16:17.375Z,101448.69
2022-09-01T16:18:46.107Z,101437.22
2022-09-01T16:21:14.304Z,101436.88
2022-09-01T16:23:41.781Z,101444.88
2022-09-01T16:26:08.085Z,101439.91
2022-09-01T16:28:36.777Z,101427.66
2022-09-01T16:31:05.684Z,101433.09
2022-09-01T16:33:32.435Z,101425.41
2022-09-01T16:36:05.475Z,101423.50
2022-09-01T16:38:36.256Z,101429.16
2022-09-01T16:41:07.047Z,101432.09
2022-09-01T16:43:38.846Z,101431.47
2022-09-01T16:46:08.954Z,101418.72
2022-09-01T16:48:39.087Z,101424.16
2022-09-01T16:51:10.226Z,101419.38
2022-09-01T16:53:47.202Z,101411.66
2022-09-01T16:56:15.323Z,101415.69
2022-09-01T16:58:44.807Z,101413.41
2022-09-01T17:01:21.725Z,101415.53
2022-09-01T17:03:53.807Z,101417.63
2022-09-01T17:06:22.919Z,101414.09
2022-09-01T17:08:50.487Z,101420.84
2022-09-01T17:11:19.474Z,101418.94
2022-09-01T17:13:47.715Z,101418.56
2022-09-01T17:16:18.424Z,101414.06
2022-09-01T17:18:49.299Z,101412.28
2022-09-01T17:21:17.864Z,101423.47
2022-09-01T17:23:50.304Z,101424.13
2022-09-01T17:26:19.638Z,101422.56
2022-09-01T17:28:49.213Z,101416.16
2022-09-01T17:31:21.738Z,101407.28
2022-09-01T17:33:58.067Z,101411.97
2022-09-01T17:36:29.026Z,101414.72
2022-09-01T17:38:59.566Z,101411.50
2022-09-01T17:41:31.756Z,101406.38
2022-09-01T17:44:01.425Z,101406.91
2022-09-01T17:46:33.610Z,101416.75
2022-09-01T17:49:07.731Z,101407.25
2022-09-01T17:51:36.828Z,101410.28
2022-09-01T17:54:07.092Z,101404.06
2022-09-01T17:56:36.998Z,101408.53
2022-09-01T17:59:07.706Z,101408.81
2022-09-01T18:01:37.899Z,101417.38
2022-09-01T18:04:16.262Z,101412.25
2022-09-01T18:06:46.127Z,101414.41
2022-09-01T18:09:14.998Z,101421.97
2022-09-01T18:11:47.259Z,101417.06
2022-09-01T18:14:14.215Z,101424.38
2022-09-01T18:16:50.555Z,101420.06
2022-09-01T18:19:19.724Z,101416.59
2022-09-01T18:21:49.656Z,101421.19
2022-09-01T18:24:18.227Z,101422.25
2022-09-01T18:26:46.091Z,101422.25
2022-09-01T18:29:12.419Z,101428.75
2022-09-01T18:31:49.113Z,101422.34
2022-09-01T18:34:19.713Z,101429.03
2022-09-01T18:36:53.807Z,101436.34
2022-09-01T18:39:24.858Z,101440.97
2022-09-01T18:41:57.071Z,101447.81
2022-09-01T18:44:29.375Z,101439.94
2022-09-01T18:46:59.909Z,101444.53
2022-09-01T18:49:30.273Z,101449.75
2022-09-01T18:52:03.590Z,101452.25
2022-09-01T18:54:33.624Z,101452.03
2022-09-01T18:57:01.355Z,101449.31
2022-09-01T18:59:40.906Z,101454.53
2022-09-01T19:02:12.213Z,101443.53
2022-09-01T19:04:39.638Z,101456.63
2022-09-01T19:07:11.212Z,101449.16
2022-09-01T19:09:41.935Z,101452.50
2022-09-01T19:12:15.778Z,101444.19
2022-09-01T19:14:45.555Z,101443.75
2022-09-01T19:17:28.830Z,101446.25
2022-09-01T19:19:57.745Z,101446.88
2022-09-01T19:22:30.298Z,101449.38
2022-09-01T19:24:59.583Z,101444.59
2022-09-01T19:27:30.599Z,101454.13
2022-09-01T19:29:58.564Z,101451.44
2022-09-01T19:32:27.098Z,101455.56
2022-09-01T19:34:56.230Z,101453.72
2022-09-01T19:37:22.960Z,101449.09
2022-09-01T19:39:54.268Z,101453.25
2022-09-01T19:42:23.417Z,101458.41
2022-09-01T19:44:53.770Z,101456.53
2022-09-01T19:47:25.839Z,101457.78
2022-09-01T19:49:57.055Z,101453.81
2022-09-01T19:52:27.503Z,101460.47
2022-09-01T19:54:57.999Z,101458.38
2022-09-01T19:57:30.144Z,101454.41
2022-09-01T20:00:00.195Z,101454.00
2022-09-01T20:02:29.047Z,101463.50
2022-09-01T20:04:58.874Z,101462.66
2022-09-01T20:07:28.925Z,101463.06
2022-09-01T20:10:01.474Z,101461.41
2022-09-01T20:12:32.010Z,101463.88
2022-09-01T20:15:06.855Z,101465.31
2022-09-01T20:17:36.994Z,101467.56
2022-09-01T20:20:07.174Z,101469.00
2022-09-01T20:22:36.542Z,101473.13
2022-09-01T20:25:07.179Z,101469.16
2022-09-01T20:27:36.915Z,101473.09
2022-09-01T20:30:05.130Z,101464.56
2022-09-01T20:32:35.009Z,101466.16
2022-09-01T20:35:07.418Z,101467.78
2022-09-01T20:37:36.520Z,101464.66
2022-09-01T20:40:06.044Z,101465.69
2022-09-01T20:42:35.887Z,101462.78
2022-09-01T20:45:09.484Z,101457.78
2022-09-01T20:47:35.811Z,101459.41
2022-09-01T20:50:06.338Z,101457.09
2022-09-01T20:52:36.303Z,101453.97
2022-09-01T20:55:09.023Z,101464.50
2022-09-01T20:57:40.460Z,101457.66
2022-09-01T21:00:08.742Z,101452.66
2022-09-01T21:02:41.754Z,101453.66
2022-09-01T21:05:15.101Z,101447.88
2022-09-01T21:07:47.690Z,101447.22
2022-09-01T21:10:17.991Z,101450.31
2022-09-01T21:12:49.018Z,101453.38
2022-09-01T21:15:22.004Z,101448.41
2022-09-01T21:17:52.777Z,101445.91
2022-09-01T21:20:24.409Z,101445.66
2022-09-01T21:22:50.885Z,101441.69
2022-09-01T21:25:18.549Z,101448.28
2022-09-01T21:27:45.732Z,101444.97
2022-09-01T21:30:13.763Z,101443.69
2022-09-01T21:32:40.551Z,101433.88
2022-09-01T21:35:08.215Z,101441.13
2022-09-01T21:37:34.776Z,101436.78
2022-09-01T21:40:01.308Z,101434.44
2022-09-01T21:42:30.554Z,101433.81
2022-09-01T21:44:57.420Z,101434.38
2022-09-01T21:47:24.042Z,101435.78
2022-09-01T21:49:50.347Z,101438.88
2022-09-01T21:52:16.679Z,101433.03
2022-09-01T21:54:43.023Z,101433.59
2022-09-01T21:57:09.643Z,101434.00
2022-09-01T21:59:37.371Z,101430.69
2022-09-01T22:02:04.138Z,101431.88
2022-09-01T22:04:30.501Z,101422.53
2022-09-01T22:06:56.830Z,101429.34
2022-09-01T22:09:23.141Z,101426.38
2022-09-01T22:11:50.494Z,101420.75
2022-09-01T22:14:16.948Z,101425.66
2022-09-01T22:16:44.724Z,101417.34
2022-09-01T22:19:11.086Z,101420.22
2022-09-01T22:21:39.410Z,101421.91
2022-09-01T22:24:06.013Z,101414.56
2022-09-01T22:26:32.809Z,101414.75
2022-09-01T22:29:00.121Z,101411.00
2022-09-01T22:31:28.421Z,101417.75
2022-09-01T22:33:56.627Z,101415.06
2022-09-01T22:36:23.930Z,101417.50
2022-09-01T22:38:50.714Z,101411.19
2022-09-01T22:41:18.362Z,101412.41
2022-09-01T22:43:44.931Z,101414.47
2022-09-01T22:46:11.337Z,101412.81
2022-09-01T22:48:37.675Z,101419.34
2022-09-01T22:51:07.246Z,101425.91
2022-09-01T22:53:33.776Z,101424.66
2022-09-01T22:56:00.312Z,101425.50
2022-09-01T22:58:26.912Z,101421.50
2022-09-01T23:00:54.281Z,101419.19
2022-09-01T23:03:21.280Z,101415.47
2022-09-01T23:05:48.234Z,101415.00
2022-09-01T23:08:16.211Z,101414.75
2022-09-01T23:10:42.779Z,101414.94
2022-09-01T23:13:09.198Z,101405.19
2022-09-01T23:15:35.503Z,101411.59
2022-09-01T23:18:01.813Z,101399.56
2022-09-01T23:20:28.211Z,101406.78
2022-09-01T23:22:54.674Z,101407.72
2022-09-01T23:25:22.377Z,101403.09
2022-09-01T23:27:48.682Z,101403.28
2022-09-01T23:30:15.102Z,101403.19
2022-09-01T23:32:41.446Z,101404.03
2022-09-01T23:35:08.173Z,101408.56
2022-09-01T23:37:34.590Z,101411.59
2022-09-01T23:40:01.033Z,101400.41
2022-09-01T23:42:28.705Z,101403.44
2022-09-01T23:44:55.023Z,101393.28
2022-09-01T23:47:21.362Z,101391.78
2022-09-01T23:49:47.673Z,101398.34
2022-09-01T23:52:13.981Z,101397.91
2022-09-01T23:54:40.306Z,101391.03
2022-09-01T23:57:06.615Z,101394.75
2022-09-01T23:59:34.285Z,101390.75
